Ingeniero Jacobacci, Argentina
Current Conditions -  °F | °C
As of 7:00 PM on Tuesday 21 Oct 2014 (Local Time) from SAZS Reporting Station
Broken Clouds Broken Clouds  
Wind Chill: 57°   Ceiling: 20000
Heat Index: 57°   Visibility: 6mi
Dew Point: 39°   Wind: 18mph
Humidity: 51%   Direction: 320°NW
Pressure: 29.94"   Gusts: NA
Location:  41.43°S, 69.47°W
Report Text: SAZS 212200Z 32016KT 9999 FEW030 BKN20014/04 Q1014
Loading
Personal Weather Stations






























Interactive Weather Map New forecast layout! Learn more

10-Day Weather Forecast

Advertisements
Track Severe Weather on mobile